sensor_id;sensor_type;location;lat;lon;timestamp;P1;durP1;ratioP1;P2;durP2;ratioP2
9042;SDS011;4556;49.150;8.808;2023-06-14T00:01:50;4.70;;;3.17;;
9042;SDS011;4556;49.150;8.808;2023-06-14T00:04:17;4.57;;;3.03;;
9042;SDS011;4556;49.150;8.808;2023-06-14T00:06:47;7.23;;;3.10;;
9042;SDS011;4556;49.150;8.808;2023-06-14T00:09:15;3.97;;;3.33;;
9042;SDS011;4556;49.150;8.808;2023-06-14T00:11:43;3.70;;;3.20;;
9042;SDS011;4556;49.150;8.808;2023-06-14T00:14:10;3.87;;;2.93;;
9042;SDS011;4556;49.150;8.808;2023-06-14T00:16:36;4.20;;;3.50;;
9042;SDS011;4556;49.150;8.808;2023-06-14T00:19:04;3.80;;;3.40;;
9042;SDS011;4556;49.150;8.808;2023-06-14T00:21:31;4.70;;;3.30;;
9042;SDS011;4556;49.150;8.808;2023-06-14T00:24:00;6.23;;;3.47;;
9042;SDS011;4556;49.150;8.808;2023-06-14T00:26:27;4.37;;;3.40;;
9042;SDS011;4556;49.150;8.808;2023-06-14T00:28:54;6.17;;;3.20;;
9042;SDS011;4556;49.150;8.808;2023-06-14T00:31:22;4.70;;;3.63;;
9042;SDS011;4556;49.150;8.808;2023-06-14T00:33:49;5.63;;;3.23;;
9042;SDS011;4556;49.150;8.808;2023-06-14T00:36:16;4.13;;;3.17;;
9042;SDS011;4556;49.150;8.808;2023-06-14T00:38:42;6.90;;;3.37;;
9042;SDS011;4556;49.150;8.808;2023-06-14T00:41:11;7.67;;;3.53;;
9042;SDS011;4556;49.150;8.808;2023-06-14T00:43:37;6.83;;;3.67;;
9042;SDS011;4556;49.150;8.808;2023-06-14T00:46:04;5.83;;;3.30;;
9042;SDS011;4556;49.150;8.808;2023-06-14T00:48:31;6.07;;;3.67;;
9042;SDS011;4556;49.150;8.808;2023-06-14T00:51:00;3.90;;;3.20;;
9042;SDS011;4556;49.150;8.808;2023-06-14T00:53:29;5.30;;;3.33;;
9042;SDS011;4556;49.150;8.808;2023-06-14T00:55:58;5.87;;;3.80;;
9042;SDS011;4556;49.150;8.808;2023-06-14T00:58:27;3.53;;;3.17;;
9042;SDS011;4556;49.150;8.808;2023-06-14T01:00:55;4.13;;;3.30;;
9042;SDS011;4556;49.150;8.808;2023-06-14T01:03:23;4.97;;;3.20;;
9042;SDS011;4556;49.150;8.808;2023-06-14T01:05:50;5.80;;;3.50;;
9042;SDS011;4556;49.150;8.808;2023-06-14T01:08:28;4.47;;;3.33;;
9042;SDS011;4556;49.150;8.808;2023-06-14T01:11:02;5.37;;;3.40;;
9042;SDS011;4556;49.150;8.808;2023-06-14T01:13:38;5.13;;;3.40;;
9042;SDS011;4556;49.150;8.808;2023-06-14T01:16:08;7.37;;;3.67;;
9042;SDS011;4556;49.150;8.808;2023-06-14T01:18:37;5.53;;;3.73;;
9042;SDS011;4556;49.150;8.808;2023-06-14T01:21:04;5.27;;;3.70;;
9042;SDS011;4556;49.150;8.808;2023-06-14T01:23:32;7.23;;;3.10;;
9042;SDS011;4556;49.150;8.808;2023-06-14T01:25:59;3.77;;;3.37;;
9042;SDS011;4556;49.150;8.808;2023-06-14T01:28:28;5.77;;;4.07;;
9042;SDS011;4556;49.150;8.808;2023-06-14T01:30:58;4.00;;;3.60;;
9042;SDS011;4556;49.150;8.808;2023-06-14T01:33:29;6.43;;;3.63;;
9042;SDS011;4556;49.150;8.808;2023-06-14T01:35:58;4.50;;;3.63;;
9042;SDS011;4556;49.150;8.808;2023-06-14T01:38:27;5.80;;;3.37;;
9042;SDS011;4556;49.150;8.808;2023-06-14T01:40:56;6.93;;;3.70;;
9042;SDS011;4556;49.150;8.808;2023-06-14T01:43:25;6.43;;;4.13;;
9042;SDS011;4556;49.150;8.808;2023-06-14T01:45:53;4.67;;;3.60;;
9042;SDS011;4556;49.150;8.808;2023-06-14T01:48:21;4.70;;;3.60;;
9042;SDS011;4556;49.150;8.808;2023-06-14T01:50:48;3.80;;;3.40;;
9042;SDS011;4556;49.150;8.808;2023-06-14T01:53:15;5.27;;;3.70;;
9042;SDS011;4556;49.150;8.808;2023-06-14T01:55:42;3.97;;;3.57;;
9042;SDS011;4556;49.150;8.808;2023-06-14T01:58:14;6.57;;;4.23;;
9042;SDS011;4556;49.150;8.808;2023-06-14T02:00:42;6.37;;;3.37;;
9042;SDS011;4556;49.150;8.808;2023-06-14T02:03:10;4.67;;;3.43;;
9042;SDS011;4556;49.150;8.808;2023-06-14T02:05:38;4.33;;;3.80;;
9042;SDS011;4556;49.150;8.808;2023-06-14T02:08:05;7.63;;;4.00;;
9042;SDS011;4556;49.150;8.808;2023-06-14T02:10:32;7.80;;;3.67;;
9042;SDS011;4556;49.150;8.808;2023-06-14T02:12:59;5.90;;;3.80;;
9042;SDS011;4556;49.150;8.808;2023-06-14T02:15:28;4.77;;;3.97;;
9042;SDS011;4556;49.150;8.808;2023-06-14T02:17:59;5.10;;;4.00;;
9042;SDS011;4556;49.150;8.808;2023-06-14T02:20:26;5.60;;;3.73;;
9042;SDS011;4556;49.150;8.808;2023-06-14T02:22:53;4.70;;;3.30;;
9042;SDS011;4556;49.150;8.808;2023-06-14T02:25:20;7.50;;;4.03;;
9042;SDS011;4556;49.150;8.808;2023-06-14T02:27:47;9.60;;;3.97;;
9042;SDS011;4556;49.150;8.808;2023-06-14T02:30:14;8.77;;;3.80;;
9042;SDS011;4556;49.150;8.808;2023-06-14T02:32:42;4.77;;;4.17;;
9042;SDS011;4556;49.150;8.808;2023-06-14T02:35:09;6.07;;;3.80;;
9042;SDS011;4556;49.150;8.808;2023-06-14T02:37:36;4.50;;;3.33;;
9042;SDS011;4556;49.150;8.808;2023-06-14T02:40:04;4.93;;;4.00;;
9042;SDS011;4556;49.150;8.808;2023-06-14T02:42:32;6.00;;;4.33;;
9042;SDS011;4556;49.150;8.808;2023-06-14T02:44:59;5.93;;;4.53;;
9042;SDS011;4556;49.150;8.808;2023-06-14T02:47:27;6.63;;;4.63;;
9042;SDS011;4556;49.150;8.808;2023-06-14T02:49:56;4.50;;;4.10;;
9042;SDS011;4556;49.150;8.808;2023-06-14T02:52:23;7.03;;;4.33;;
9042;SDS011;4556;49.150;8.808;2023-06-14T02:54:50;5.67;;;4.33;;
9042;SDS011;4556;49.150;8.808;2023-06-14T02:57:17;4.90;;;4.17;;
9042;SDS011;4556;49.150;8.808;2023-06-14T02:59:44;5.80;;;4.80;;
9042;SDS011;4556;49.150;8.808;2023-06-14T03:02:10;7.13;;;4.40;;
9042;SDS011;4556;49.150;8.808;2023-06-14T03:04:38;5.30;;;4.13;;
9042;SDS011;4556;49.150;8.808;2023-06-14T03:07:07;8.33;;;4.50;;
9042;SDS011;4556;49.150;8.808;2023-06-14T03:09:35;5.80;;;4.23;;
9042;SDS011;4556;49.150;8.808;2023-06-14T03:12:03;6.67;;;4.30;;
9042;SDS011;4556;49.150;8.808;2023-06-14T03:14:31;5.50;;;4.33;;
9042;SDS011;4556;49.150;8.808;2023-06-14T03:16:59;7.97;;;4.50;;
9042;SDS011;4556;49.150;8.808;2023-06-14T03:19:26;6.73;;;4.63;;
9042;SDS011;4556;49.150;8.808;2023-06-14T03:21:53;7.13;;;4.20;;
9042;SDS011;4556;49.150;8.808;2023-06-14T03:24:23;6.40;;;4.43;;
9042;SDS011;4556;49.150;8.808;2023-06-14T03:26:52;4.43;;;4.00;;
9042;SDS011;4556;49.150;8.808;2023-06-14T03:29:19;7.03;;;4.20;;
9042;SDS011;4556;49.150;8.808;2023-06-14T03:31:56;6.53;;;3.97;;
9042;SDS011;4556;49.150;8.808;2023-06-14T03:34:24;5.40;;;4.30;;
9042;SDS011;4556;49.150;8.808;2023-06-14T03:36:50;6.10;;;4.30;;
9042;SDS011;4556;49.150;8.808;2023-06-14T03:39:18;6.77;;;4.43;;
9042;SDS011;4556;49.150;8.808;2023-06-14T03:41:46;5.93;;;4.63;;
9042;SDS011;4556;49.150;8.808;2023-06-14T03:44:14;6.53;;;4.87;;
9042;SDS011;4556;49.150;8.808;2023-06-14T03:46:41;6.93;;;4.23;;
9042;SDS011;4556;49.150;8.808;2023-06-14T03:49:08;5.63;;;4.80;;
9042;SDS011;4556;49.150;8.808;2023-06-14T03:51:36;7.67;;;4.90;;
9042;SDS011;4556;49.150;8.808;2023-06-14T03:54:02;8.33;;;4.90;;
9042;SDS011;4556;49.150;8.808;2023-06-14T03:56:29;6.40;;;4.77;;
9042;SDS011;4556;49.150;8.808;2023-06-14T03:58:58;6.23;;;4.67;;
9042;SDS011;4556;49.150;8.808;2023-06-14T04:01:25;6.33;;;5.00;;
9042;SDS011;4556;49.150;8.808;2023-06-14T04:03:54;4.60;;;4.00;;
9042;SDS011;4556;49.150;8.808;2023-06-14T04:06:21;6.57;;;4.60;;
9042;SDS011;4556;49.150;8.808;2023-06-14T04:08:50;8.13;;;4.63;;
9042;SDS011;4556;49.150;8.808;2023-06-14T04:11:17;6.30;;;4.20;;
9042;SDS011;4556;49.150;8.808;2023-06-14T04:13:44;5.17;;;4.23;;
9042;SDS011;4556;49.150;8.808;2023-06-14T04:16:13;6.70;;;4.90;;
9042;SDS011;4556;49.150;8.808;2023-06-14T04:18:40;6.40;;;4.63;;
9042;SDS011;4556;49.150;8.808;2023-06-14T04:21:07;7.47;;;4.33;;
9042;SDS011;4556;49.150;8.808;2023-06-14T04:23:34;6.17;;;4.70;;
9042;SDS011;4556;49.150;8.808;2023-06-14T04:26:01;8.17;;;4.53;;
9042;SDS011;4556;49.150;8.808;2023-06-14T04:28:28;8.50;;;4.10;;
9042;SDS011;4556;49.150;8.808;2023-06-14T04:30:55;6.63;;;4.30;;
9042;SDS011;4556;49.150;8.808;2023-06-14T04:33:23;6.40;;;4.50;;
9042;SDS011;4556;49.150;8.808;2023-06-14T04:35:50;5.90;;;4.67;;
9042;SDS011;4556;49.150;8.808;2023-06-14T04:38:19;5.50;;;4.37;;
9042;SDS011;4556;49.150;8.808;2023-06-14T04:40:50;7.00;;;4.60;;
9042;SDS011;4556;49.150;8.808;2023-06-14T04:43:18;4.80;;;4.20;;
9042;SDS011;4556;49.150;8.808;2023-06-14T04:45:51;5.80;;;4.40;;
9042;SDS011;4556;49.150;8.808;2023-06-14T04:48:19;4.47;;;4.00;;
9042;SDS011;4556;49.150;8.808;2023-06-14T04:50:49;6.47;;;4.10;;
9042;SDS011;4556;49.150;8.808;2023-06-14T04:53:18;5.60;;;4.17;;
9042;SDS011;4556;49.150;8.808;2023-06-14T04:55:46;5.60;;;3.97;;
9042;SDS011;4556;49.150;8.808;2023-06-14T04:58:13;6.30;;;4.30;;
9042;SDS011;4556;49.150;8.808;2023-06-14T05:00:40;7.10;;;3.57;;
9042;SDS011;4556;49.150;8.808;2023-06-14T05:03:08;6.97;;;3.70;;
9042;SDS011;4556;49.150;8.808;2023-06-14T05:05:38;4.20;;;3.80;;
9042;SDS011;4556;49.150;8.808;2023-06-14T05:08:07;5.60;;;3.73;;
9042;SDS011;4556;49.150;8.808;2023-06-14T05:10:34;4.90;;;3.93;;
9042;SDS011;4556;49.150;8.808;2023-06-14T05:13:01;4.57;;;3.83;;
9042;SDS011;4556;49.150;8.808;2023-06-14T05:15:28;5.50;;;3.83;;
9042;SDS011;4556;49.150;8.808;2023-06-14T05:17:55;4.13;;;3.70;;
9042;SDS011;4556;49.150;8.808;2023-06-14T05:20:22;5.00;;;4.07;;
9042;SDS011;4556;49.150;8.808;2023-06-14T05:22:49;5.30;;;3.93;;
9042;SDS011;4556;49.150;8.808;2023-06-14T05:25:19;8.47;;;3.93;;
9042;SDS011;4556;49.150;8.808;2023-06-14T05:27:46;4.00;;;3.60;;
9042;SDS011;4556;49.150;8.808;2023-06-14T05:30:13;5.03;;;3.70;;
9042;SDS011;4556;49.150;8.808;2023-06-14T05:32:41;7.13;;;3.57;;
9042;SDS011;4556;49.150;8.808;2023-06-14T05:35:08;5.57;;;3.63;;
9042;SDS011;4556;49.150;8.808;2023-06-14T05:37:35;5.73;;;3.50;;
9042;SDS011;4556;49.150;8.808;2023-06-14T05:40:03;8.23;;;4.00;;
9042;SDS011;4556;49.150;8.808;2023-06-14T05:42:33;6.97;;;3.70;;
9042;SDS011;4556;49.150;8.808;2023-06-14T05:44:59;5.83;;;3.63;;
9042;SDS011;4556;49.150;8.808;2023-06-14T05:47:27;8.43;;;3.80;;
9042;SDS011;4556;49.150;8.808;2023-06-14T05:49:54;5.90;;;3.40;;
9042;SDS011;4556;49.150;8.808;2023-06-14T05:52:21;6.60;;;3.83;;
9042;SDS011;4556;49.150;8.808;2023-06-14T05:54:48;6.03;;;3.70;;
9042;SDS011;4556;49.150;8.808;2023-06-14T05:57:15;8.10;;;3.83;;
9042;SDS011;4556;49.150;8.808;2023-06-14T05:59:45;7.63;;;3.90;;
9042;SDS011;4556;49.150;8.808;2023-06-14T06:02:11;8.90;;;3.77;;
9042;SDS011;4556;49.150;8.808;2023-06-14T06:04:38;7.80;;;3.70;;
9042;SDS011;4556;49.150;8.808;2023-06-14T06:07:05;7.13;;;3.27;;
9042;SDS011;4556;49.150;8.808;2023-06-14T06:09:32;5.83;;;3.50;;
9042;SDS011;4556;49.150;8.808;2023-06-14T06:11:59;6.47;;;3.67;;
9042;SDS011;4556;49.150;8.808;2023-06-14T06:14:26;5.97;;;4.13;;
9042;SDS011;4556;49.150;8.808;2023-06-14T06:16:54;7.00;;;3.57;;
9042;SDS011;4556;49.150;8.808;2023-06-14T06:19:21;7.23;;;3.90;;
9042;SDS011;4556;49.150;8.808;2023-06-14T06:21:49;5.17;;;3.50;;
9042;SDS011;4556;49.150;8.808;2023-06-14T06:24:16;4.83;;;3.07;;
9042;SDS011;4556;49.150;8.808;2023-06-14T06:26:43;5.93;;;3.30;;
9042;SDS011;4556;49.150;8.808;2023-06-14T06:29:16;8.27;;;3.77;;
9042;SDS011;4556;49.150;8.808;2023-06-14T06:31:45;5.97;;;3.43;;
9042;SDS011;4556;49.150;8.808;2023-06-14T06:34:14;5.30;;;3.33;;
9042;SDS011;4556;49.150;8.808;2023-06-14T06:36:41;5.30;;;3.43;;
9042;SDS011;4556;49.150;8.808;2023-06-14T06:39:08;7.37;;;3.57;;
9042;SDS011;4556;49.150;8.808;2023-06-14T06:41:37;5.97;;;3.20;;
9042;SDS011;4556;49.150;8.808;2023-06-14T06:44:05;5.53;;;3.67;;
9042;SDS011;4556;49.150;8.808;2023-06-14T06:46:33;7.83;;;3.20;;
9042;SDS011;4556;49.150;8.808;2023-06-14T06:49:05;4.93;;;3.43;;
9042;SDS011;4556;49.150;8.808;2023-06-14T06:51:34;3.87;;;3.30;;
9042;SDS011;4556;49.150;8.808;2023-06-14T06:54:02;4.50;;;3.30;;
9042;SDS011;4556;49.150;8.808;2023-06-14T06:56:31;6.70;;;4.03;;
9042;SDS011;4556;49.150;8.808;2023-06-14T06:58:58;4.67;;;3.37;;
9042;SDS011;4556;49.150;8.808;2023-06-14T07:01:25;5.20;;;3.50;;
9042;SDS011;4556;49.150;8.808;2023-06-14T07:03:53;4.20;;;3.33;;
9042;SDS011;4556;49.150;8.808;2023-06-14T07:06:20;5.80;;;3.17;;
9042;SDS011;4556;49.150;8.808;2023-06-14T07:08:49;5.30;;;3.67;;
9042;SDS011;4556;49.150;8.808;2023-06-14T07:11:17;7.30;;;3.40;;
9042;SDS011;4556;49.150;8.808;2023-06-14T07:13:45;4.40;;;3.20;;
9042;SDS011;4556;49.150;8.808;2023-06-14T07:16:12;5.20;;;3.33;;
9042;SDS011;4556;49.150;8.808;2023-06-14T07:18:39;3.53;;;3.00;;
9042;SDS011;4556;49.150;8.808;2023-06-14T07:21:06;6.53;;;3.20;;
9042;SDS011;4556;49.150;8.808;2023-06-14T07:23:33;12.73;;;3.50;;
9042;SDS011;4556;49.150;8.808;2023-06-14T07:26:01;7.37;;;3.03;;
9042;SDS011;4556;49.150;8.808;2023-06-14T07:28:32;8.57;;;3.23;;
9042;SDS011;4556;49.150;8.808;2023-06-14T07:31:00;9.43;;;3.80;;
9042;SDS011;4556;49.150;8.808;2023-06-14T07:33:27;6.70;;;3.33;;
9042;SDS011;4556;49.150;8.808;2023-06-14T07:35:54;3.83;;;3.10;;
9042;SDS011;4556;49.150;8.808;2023-06-14T07:38:22;6.37;;;2.83;;
9042;SDS011;4556;49.150;8.808;2023-06-14T07:40:49;4.80;;;3.23;;
9042;SDS011;4556;49.150;8.808;2023-06-14T07:43:17;5.90;;;3.03;;
9042;SDS011;4556;49.150;8.808;2023-06-14T07:45:44;5.93;;;3.03;;
9042;SDS011;4556;49.150;8.808;2023-06-14T07:48:11;4.83;;;3.10;;
9042;SDS011;4556;49.150;8.808;2023-06-14T07:50:38;4.60;;;3.47;;
9042;SDS011;4556;49.150;8.808;2023-06-14T07:53:08;4.50;;;3.23;;
9042;SDS011;4556;49.150;8.808;2023-06-14T07:55:35;4.70;;;3.20;;
9042;SDS011;4556;49.150;8.808;2023-06-14T07:58:04;4.67;;;3.50;;
9042;SDS011;4556;49.150;8.808;2023-06-14T08:00:38;5.33;;;3.03;;
9042;SDS011;4556;49.150;8.808;2023-06-14T08:03:12;6.27;;;3.10;;
9042;SDS011;4556;49.150;8.808;2023-06-14T08:05:39;5.00;;;2.90;;
9042;SDS011;4556;49.150;8.808;2023-06-14T08:08:06;7.37;;;3.27;;
9042;SDS011;4556;49.150;8.808;2023-06-14T08:10:33;10.33;;;3.23;;
9042;SDS011;4556;49.150;8.808;2023-06-14T08:13:00;4.33;;;3.07;;
9042;SDS011;4556;49.150;8.808;2023-06-14T08:15:27;5.23;;;3.37;;
9042;SDS011;4556;49.150;8.808;2023-06-14T08:17:55;6.13;;;3.50;;
9042;SDS011;4556;49.150;8.808;2023-06-14T08:20:24;3.63;;;3.23;;
9042;SDS011;4556;49.150;8.808;2023-06-14T08:22:51;3.73;;;3.10;;
9042;SDS011;4556;49.150;8.808;2023-06-14T08:25:20;3.63;;;3.10;;
9042;SDS011;4556;49.150;8.808;2023-06-14T08:27:47;4.90;;;2.80;;
9042;SDS011;4556;49.150;8.808;2023-06-14T08:30:15;7.07;;;3.20;;
9042;SDS011;4556;49.150;8.808;2023-06-14T08:32:42;6.67;;;3.17;;
9042;SDS011;4556;49.150;8.808;2023-06-14T08:35:10;4.97;;;3.10;;
9042;SDS011;4556;49.150;8.808;2023-06-14T08:37:38;6.13;;;3.30;;
9042;SDS011;4556;49.150;8.808;2023-06-14T08:40:07;4.97;;;3.17;;
9042;SDS011;4556;49.150;8.808;2023-06-14T08:42:43;6.23;;;3.00;;
9042;SDS011;4556;49.150;8.808;2023-06-14T08:45:12;4.80;;;3.20;;
9042;SDS011;4556;49.150;8.808;2023-06-14T08:47:39;4.17;;;3.07;;
9042;SDS011;4556;49.150;8.808;2023-06-14T08:50:07;5.43;;;3.27;;
9042;SDS011;4556;49.150;8.808;2023-06-14T08:52:37;4.77;;;2.80;;
9042;SDS011;4556;49.150;8.808;2023-06-14T08:55:10;3.93;;;2.83;;
9042;SDS011;4556;49.150;8.808;2023-06-14T08:57:39;4.47;;;3.07;;
9042;SDS011;4556;49.150;8.808;2023-06-14T09:00:07;4.33;;;3.23;;
9042;SDS011;4556;49.150;8.808;2023-06-14T09:02:37;6.77;;;3.17;;
9042;SDS011;4556;49.150;8.808;2023-06-14T09:05:08;5.27;;;3.40;;
9042;SDS011;4556;49.150;8.808;2023-06-14T09:07:37;6.07;;;3.20;;
9042;SDS011;4556;49.150;8.808;2023-06-14T09:10:06;4.70;;;2.80;;
9042;SDS011;4556;49.150;8.808;2023-06-14T09:12:34;5.40;;;3.37;;
9042;SDS011;4556;49.150;8.808;2023-06-14T09:15:01;6.57;;;3.10;;
9042;SDS011;4556;49.150;8.808;2023-06-14T09:17:32;4.70;;;3.33;;
9042;SDS011;4556;49.150;8.808;2023-06-14T09:20:00;8.93;;;3.30;;
9042;SDS011;4556;49.150;8.808;2023-06-14T09:22:30;3.67;;;3.00;;
9042;SDS011;4556;49.150;8.808;2023-06-14T09:24:58;6.73;;;3.23;;
9042;SDS011;4556;49.150;8.808;2023-06-14T09:27:25;6.20;;;2.90;;
9042;SDS011;4556;49.150;8.808;2023-06-14T09:29:52;3.37;;;2.60;;
9042;SDS011;4556;49.150;8.808;2023-06-14T09:32:20;4.27;;;2.90;;
9042;SDS011;4556;49.150;8.808;2023-06-14T09:34:47;5.60;;;2.77;;
9042;SDS011;4556;49.150;8.808;2023-06-14T09:37:17;4.33;;;2.80;;
9042;SDS011;4556;49.150;8.808;2023-06-14T09:39:53;4.33;;;2.80;;
9042;SDS011;4556;49.150;8.808;2023-06-14T09:42:21;4.53;;;3.10;;
9042;SDS011;4556;49.150;8.808;2023-06-14T09:44:53;5.10;;;2.60;;
9042;SDS011;4556;49.150;8.808;2023-06-14T09:47:22;5.63;;;2.90;;
9042;SDS011;4556;49.150;8.808;2023-06-14T09:49:49;4.10;;;2.63;;
9042;SDS011;4556;49.150;8.808;2023-06-14T09:52:17;5.77;;;3.30;;
9042;SDS011;4556;49.150;8.808;2023-06-14T09:54:45;6.23;;;3.50;;
9042;SDS011;4556;49.150;8.808;2023-06-14T09:57:15;4.27;;;2.83;;
9042;SDS011;4556;49.150;8.808;2023-06-14T09:59:44;3.93;;;3.30;;
9042;SDS011;4556;49.150;8.808;2023-06-14T10:02:14;4.13;;;2.90;;
9042;SDS011;4556;49.150;8.808;2023-06-14T10:04:46;5.47;;;3.10;;
9042;SDS011;4556;49.150;8.808;2023-06-14T10:07:19;6.57;;;2.83;;
9042;SDS011;4556;49.150;8.808;2023-06-14T10:09:48;3.97;;;2.93;;
9042;SDS011;4556;49.150;8.808;2023-06-14T10:12:18;6.43;;;2.90;;
9042;SDS011;4556;49.150;8.808;2023-06-14T10:14:49;8.87;;;2.50;;
9042;SDS011;4556;49.150;8.808;2023-06-14T10:17:20;3.53;;;2.80;;
9042;SDS011;4556;49.150;8.808;2023-06-14T10:19:54;4.10;;;2.67;;
9042;SDS011;4556;49.150;8.808;2023-06-14T10:22:23;5.10;;;2.63;;
9042;SDS011;4556;49.150;8.808;2023-06-14T10:24:55;3.17;;;2.50;;
9042;SDS011;4556;49.150;8.808;2023-06-14T10:27:22;5.57;;;2.70;;
9042;SDS011;4556;49.150;8.808;2023-06-14T10:30:04;5.93;;;2.57;;
9042;SDS011;4556;49.150;8.808;2023-06-14T10:32:33;3.57;;;2.70;;
9042;SDS011;4556;49.150;8.808;2023-06-14T10:35:01;3.37;;;2.53;;
9042;SDS011;4556;49.150;8.808;2023-06-14T10:37:31;6.27;;;2.57;;
9042;SDS011;4556;49.150;8.808;2023-06-14T10:39:58;3.20;;;2.40;;
9042;SDS011;4556;49.150;8.808;2023-06-14T10:42:27;3.47;;;2.60;;
9042;SDS011;4556;49.150;8.808;2023-06-14T10:44:58;3.87;;;2.73;;
9042;SDS011;4556;49.150;8.808;2023-06-14T10:47:29;4.93;;;2.50;;
9042;SDS011;4556;49.150;8.808;2023-06-14T10:50:03;5.43;;;2.93;;
9042;SDS011;4556;49.150;8.808;2023-06-14T10:52:35;4.53;;;2.43;;
9042;SDS011;4556;49.150;8.808;2023-06-14T10:55:08;3.47;;;2.70;;
9042;SDS011;4556;49.150;8.808;2023-06-14T10:57:36;5.40;;;2.57;;
9042;SDS011;4556;49.150;8.808;2023-06-14T11:00:06;4.40;;;2.40;;
9042;SDS011;4556;49.150;8.808;2023-06-14T11:02:48;3.43;;;2.83;;
9042;SDS011;4556;49.150;8.808;2023-06-14T11:05:49;3.10;;;2.47;;
9042;SDS011;4556;49.150;8.808;2023-06-14T11:08:26;5.17;;;2.53;;
9042;SDS011;4556;49.150;8.808;2023-06-14T11:11:05;4.20;;;2.43;;
9042;SDS011;4556;49.150;8.808;2023-06-14T11:13:33;3.93;;;2.70;;
9042;SDS011;4556;49.150;8.808;2023-06-14T11:16:03;4.93;;;2.50;;
9042;SDS011;4556;49.150;8.808;2023-06-14T11:18:45;5.77;;;2.67;;
9042;SDS011;4556;49.150;8.808;2023-06-14T11:21:15;3.57;;;2.63;;
9042;SDS011;4556;49.150;8.808;2023-06-14T11:23:50;3.93;;;2.50;;
9042;SDS011;4556;49.150;8.808;2023-06-14T11:26:27;4.73;;;2.47;;
9042;SDS011;4556;49.150;8.808;2023-06-14T11:28:55;5.67;;;2.63;;
9042;SDS011;4556;49.150;8.808;2023-06-14T11:31:23;4.00;;;2.70;;
9042;SDS011;4556;49.150;8.808;2023-06-14T11:33:54;3.80;;;2.70;;
9042;SDS011;4556;49.150;8.808;2023-06-14T11:36:26;6.60;;;2.60;;
9042;SDS011;4556;49.150;8.808;2023-06-14T11:38:57;4.07;;;2.57;;
9042;SDS011;4556;49.150;8.808;2023-06-14T11:41:25;2.80;;;2.50;;
9042;SDS011;4556;49.150;8.808;2023-06-14T11:43:59;5.70;;;2.80;;
9042;SDS011;4556;49.150;8.808;2023-06-14T11:46:27;4.30;;;2.73;;
9042;SDS011;4556;49.150;8.808;2023-06-14T11:48:55;6.30;;;2.70;;
9042;SDS011;4556;49.150;8.808;2023-06-14T11:51:23;3.50;;;2.63;;
9042;SDS011;4556;49.150;8.808;2023-06-14T11:53:50;3.57;;;2.60;;
9042;SDS011;4556;49.150;8.808;2023-06-14T11:56:17;4.30;;;2.27;;
9042;SDS011;4556;49.150;8.808;2023-06-14T11:58:45;3.23;;;2.50;;
9042;SDS011;4556;49.150;8.808;2023-06-14T12:01:14;4.47;;;2.37;;
9042;SDS011;4556;49.150;8.808;2023-06-14T12:03:47;4.20;;;2.20;;
9042;SDS011;4556;49.150;8.808;2023-06-14T12:06:28;3.53;;;2.53;;
9042;SDS011;4556;49.150;8.808;2023-06-14T12:08:58;4.80;;;2.50;;
9042;SDS011;4556;49.150;8.808;2023-06-14T12:11:28;3.80;;;2.50;;
9042;SDS011;4556;49.150;8.808;2023-06-14T12:13:58;2.83;;;2.00;;
9042;SDS011;4556;49.150;8.808;2023-06-14T12:16:29;3.80;;;2.53;;
9042;SDS011;4556;49.150;8.808;2023-06-14T12:18:59;3.23;;;2.23;;
9042;SDS011;4556;49.150;8.808;2023-06-14T12:21:29;2.63;;;2.20;;
9042;SDS011;4556;49.150;8.808;2023-06-14T12:24:02;4.20;;;2.67;;
9042;SDS011;4556;49.150;8.808;2023-06-14T12:26:31;4.30;;;2.67;;
9042;SDS011;4556;49.150;8.808;2023-06-14T12:28:59;3.00;;;2.33;;
9042;SDS011;4556;49.150;8.808;2023-06-14T12:31:26;2.57;;;2.20;;
9042;SDS011;4556;49.150;8.808;2023-06-14T12:33:54;4.07;;;2.37;;
9042;SDS011;4556;49.150;8.808;2023-06-14T12:36:22;4.40;;;2.40;;
9042;SDS011;4556;49.150;8.808;2023-06-14T12:38:50;5.03;;;2.67;;
9042;SDS011;4556;49.150;8.808;2023-06-14T12:41:18;3.17;;;2.30;;
9042;SDS011;4556;49.150;8.808;2023-06-14T12:43:46;3.80;;;2.47;;
9042;SDS011;4556;49.150;8.808;2023-06-14T12:46:13;3.47;;;2.30;;
9042;SDS011;4556;49.150;8.808;2023-06-14T12:48:40;2.50;;;2.07;;
9042;SDS011;4556;49.150;8.808;2023-06-14T12:51:07;3.20;;;2.50;;
9042;SDS011;4556;49.150;8.808;2023-06-14T12:53:34;3.53;;;2.30;;
9042;SDS011;4556;49.150;8.808;2023-06-14T12:56:03;5.93;;;2.40;;
9042;SDS011;4556;49.150;8.808;2023-06-14T12:58:32;3.73;;;2.33;;
9042;SDS011;4556;49.150;8.808;2023-06-14T13:00:59;4.90;;;2.80;;
9042;SDS011;4556;49.150;8.808;2023-06-14T13:03:26;5.00;;;2.37;;
9042;SDS011;4556;49.150;8.808;2023-06-14T13:05:53;3.93;;;2.50;;
9042;SDS011;4556;49.150;8.808;2023-06-14T13:08:20;3.13;;;2.60;;
9042;SDS011;4556;49.150;8.808;2023-06-14T13:11:04;4.20;;;2.57;;
9042;SDS011;4556;49.150;8.808;2023-06-14T13:13:31;3.13;;;2.40;;
9042;SDS011;4556;49.150;8.808;2023-06-14T13:15:58;3.07;;;2.60;;
9042;SDS011;4556;49.150;8.808;2023-06-14T13:18:25;3.73;;;2.50;;
9042;SDS011;4556;49.150;8.808;2023-06-14T13:20:53;4.37;;;2.40;;
9042;SDS011;4556;49.150;8.808;2023-06-14T13:23:19;3.83;;;2.40;;
9042;SDS011;4556;49.150;8.808;2023-06-14T13:25:46;4.10;;;2.40;;
9042;SDS011;4556;49.150;8.808;2023-06-14T13:28:16;4.07;;;2.50;;
9042;SDS011;4556;49.150;8.808;2023-06-14T13:30:44;3.80;;;2.70;;
9042;SDS011;4556;49.150;8.808;2023-06-14T13:33:10;3.50;;;2.30;;
9042;SDS011;4556;49.150;8.808;2023-06-14T13:35:42;3.40;;;2.40;;
9042;SDS011;4556;49.150;8.808;2023-06-14T13:38:11;3.90;;;2.50;;
9042;SDS011;4556;49.150;8.808;2023-06-14T13:40:40;3.73;;;2.40;;
9042;SDS011;4556;49.150;8.808;2023-06-14T13:43:08;6.23;;;2.50;;
9042;SDS011;4556;49.150;8.808;2023-06-14T13:45:36;3.10;;;2.37;;
9042;SDS011;4556;49.150;8.808;2023-06-14T13:48:03;3.43;;;2.30;;
9042;SDS011;4556;49.150;8.808;2023-06-14T13:50:35;3.50;;;2.50;;
9042;SDS011;4556;49.150;8.808;2023-06-14T13:53:02;2.50;;;2.30;;
9042;SDS011;4556;49.150;8.808;2023-06-14T13:55:29;2.80;;;2.23;;
9042;SDS011;4556;49.150;8.808;2023-06-14T13:57:56;3.63;;;2.47;;
9042;SDS011;4556;49.150;8.808;2023-06-14T14:00:23;3.63;;;2.43;;
9042;SDS011;4556;49.150;8.808;2023-06-14T14:02:52;5.63;;;2.70;;
9042;SDS011;4556;49.150;8.808;2023-06-14T14:05:19;3.77;;;2.37;;
9042;SDS011;4556;49.150;8.808;2023-06-14T14:07:51;4.77;;;2.20;;
9042;SDS011;4556;49.150;8.808;2023-06-14T14:10:26;4.37;;;2.43;;
9042;SDS011;4556;49.150;8.808;2023-06-14T14:12:53;2.50;;;2.30;;
9042;SDS011;4556;49.150;8.808;2023-06-14T14:15:20;3.13;;;2.50;;
9042;SDS011;4556;49.150;8.808;2023-06-14T14:17:48;3.33;;;2.80;;
9042;SDS011;4556;49.150;8.808;2023-06-14T14:20:16;5.77;;;2.53;;
9042;SDS011;4556;49.150;8.808;2023-06-14T14:22:43;3.97;;;2.50;;
9042;SDS011;4556;49.150;8.808;2023-06-14T14:25:10;3.53;;;2.77;;
9042;SDS011;4556;49.150;8.808;2023-06-14T14:27:37;3.00;;;2.40;;
9042;SDS011;4556;49.150;8.808;2023-06-14T14:30:07;3.00;;;2.50;;
9042;SDS011;4556;49.150;8.808;2023-06-14T14:32:35;4.27;;;2.47;;
9042;SDS011;4556;49.150;8.808;2023-06-14T14:35:02;4.10;;;2.57;;
9042;SDS011;4556;49.150;8.808;2023-06-14T14:37:34;5.10;;;3.23;;
9042;SDS011;4556;49.150;8.808;2023-06-14T14:40:01;3.30;;;2.60;;
9042;SDS011;4556;49.150;8.808;2023-06-14T14:42:29;3.87;;;2.53;;
9042;SDS011;4556;49.150;8.808;2023-06-14T14:44:55;5.00;;;2.77;;
9042;SDS011;4556;49.150;8.808;2023-06-14T14:47:22;3.60;;;2.70;;
9042;SDS011;4556;49.150;8.808;2023-06-14T14:49:50;3.07;;;2.40;;
9042;SDS011;4556;49.150;8.808;2023-06-14T14:52:18;5.37;;;3.07;;
9042;SDS011;4556;49.150;8.808;2023-06-14T14:54:47;2.97;;;2.53;;
9042;SDS011;4556;49.150;8.808;2023-06-14T14:57:13;5.73;;;2.80;;
9042;SDS011;4556;49.150;8.808;2023-06-14T14:59:40;6.60;;;2.50;;
9042;SDS011;4556;49.150;8.808;2023-06-14T15:02:09;3.70;;;2.67;;
9042;SDS011;4556;49.150;8.808;2023-06-14T15:04:36;3.40;;;2.77;;
9042;SDS011;4556;49.150;8.808;2023-06-14T15:07:04;3.93;;;2.70;;
9042;SDS011;4556;49.150;8.808;2023-06-14T15:09:31;3.47;;;2.27;;
9042;SDS011;4556;49.150;8.808;2023-06-14T15:11:59;4.57;;;2.30;;
9042;SDS011;4556;49.150;8.808;2023-06-14T15:14:27;3.37;;;2.50;;
9042;SDS011;4556;49.150;8.808;2023-06-14T15:16:54;3.37;;;2.70;;
9042;SDS011;4556;49.150;8.808;2023-06-14T15:19:23;2.80;;;2.50;;
9042;SDS011;4556;49.150;8.808;2023-06-14T15:21:49;3.43;;;2.67;;
9042;SDS011;4556;49.150;8.808;2023-06-14T15:24:17;5.23;;;2.53;;